Latest Weather Observations for Warragul (Nilma North)

IDV60801

Issued at 2:02 pm EDT Tuesday 3 March 2015 (issued every 30 minutes, with the page automatically refreshed every 10 minutes)

About weather observations | Map of weather stations | Latest weather observations for VIC | Other Formats
Station Details ID: 085313 Name: NILMA NORTH (WARRAGUL) Lat: -38.13 Lon: 145.99 Height: 134.11 m
Data from the previous 72 hours. | See also: Recent months for locations in Victoria
Date/Time
EDT
Temp
°C
App
Temp
°C
Dew
Point
Rel
Hum
%
Delta-T
°C
Wind Press
QNH
hPa
Press
MSL
hPa
Rain
since 9 am
mm
Dir
 
Spd
km/h
Gust
km/h
Spd
kts
Gust
kts
03/02:00pm 21.8 20.9 11.5 52 5.8 WSW 7 11 4 6 1016.2 1015.9 0.0
03/01:30pm 20.8 20.6 11.7 56 5.1 WSW 4 11 2 6 1016.3 1016.0 0.0
03/01:00pm 20.5 19.6 11.4 56 5.0 SW 7 11 4 6 1016.6 1016.3 0.0
03/12:30pm 20.1 19.5 11.6 58 4.7 SE 6 11 3 6 1016.9 1016.6 0.0
03/12:00pm 20.4 19.6 11.6 57 4.9 SW 7 11 4 6 1017.2 1016.9 0.0
03/11:30am 20.0 19.2 11.8 59 4.6 W 7 13 4 7 1017.3 1017.0 0.0
03/11:00am 19.4 18.7 11.4 60 4.4 SSW 6 9 3 5 1017.4 1017.1 0.0
03/10:30am 18.6 18.2 12.4 67 3.5 WSW 6 13 3 7 1017.6 1017.3 0.0
03/10:00am 18.5 18.7 13.1 71 3.1 SW 4 7 2 4 1017.3 1017.0 0.0
03/09:30am 17.2 18.0 12.5 74 2.6 CALM 0 4 0 2 1017.0 1016.7 0.0
03/09:00am 16.2 16.3 12.6 79 2.0 WSW 4 6 2 3 1016.9 1016.6 0.0
03/08:30am 15.3 16.1 12.6 84 1.5 CALM 0 0 0 0 1016.7 1016.4 0.0
03/08:00am 14.7 15.3 12.0 84 1.5 CALM 0 0 0 0 1016.6 1016.3 0.0
03/07:30am 14.6 14.8 11.9 84 1.5 WSW 2 4 1 2 1016.4 1016.1 0.0
03/07:00am 14.4 14.6 11.7 84 1.5 NW 2 4 1 2 1016.0 1015.7 0.0
03/06:30am 14.4 14.6 11.9 85 1.4 NW 2 6 1 3 1015.7 1015.4 0.0
03/06:00am 14.6 14.4 11.9 84 1.5 NW 4 6 2 3 1015.4 1015.1 0.0
03/05:30am 14.7 15.2 11.7 82 1.6 CALM 0 0 0 0 1015.1 1014.8 0.0
03/05:00am 14.9 14.7 11.7 81 1.7 W 4 6 2 3 1015.4 1015.1 0.0
03/04:30am 14.4 15.1 12.1 86 1.3 CALM 0 0 0 0 1015.3 1015.0 0.0
03/04:00am 14.4 14.4 12.3 87 1.1 WNW 4 6 2 3 1015.5 1015.2 0.0
03/03:30am 14.7 15.0 12.2 85 1.4 WNW 2 6 1 3 1015.0 1014.7 0.0
03/03:00am 15.0 14.9 12.0 82 1.6 NNW 4 6 2 3 1015.3 1015.0 0.0
03/02:30am 14.7 14.6 12.2 85 1.4 NW 4 7 2 4 1015.6 1015.3 0.0
03/02:00am 15.1 15.8 12.2 83 1.6 CALM 0 0 0 0 1015.5 1015.2 0.0
03/01:30am 15.6 15.5 12.2 80 1.9 N 4 7 2 4 1015.3 1015.0 0.0
03/01:00am 16.0 15.7 12.6 80 1.9 NW 6 7 3 4 1015.7 1015.4 0.0
03/12:30am 16.0 16.2 12.9 82 1.7 N 4 6 2 3 1015.2 1014.9 0.0
03/12:00am 16.0 16.2 12.9 82 1.7 S 4 7 2 4 1015.3 1015.0 0.0
 
Date/Time
EDT
Temp
°C
App
Temp
°C
Dew
Point
Rel
Hum
%
Delta-T
°C
Wind Press
QNH
hPa
Press
MSL
hPa
Rain
since 9 am
mm
Dir
 
Spd
km/h
Gust
km/h
Spd
kts
Gust
kts
02/11:30pm 16.3 16.6 12.1 76 2.3 SW 2 4 1 2 1015.7 1015.4 0.0
02/11:00pm 16.2 16.8 12.0 76 2.3 CALM 0 0 0 0 1015.7 1015.4 0.0
02/10:30pm 16.1 16.9 12.5 79 2.0 CALM 0 4 0 2 1015.6 1015.3 0.0
02/10:00pm 17.5 17.6 11.5 68 3.3 S 2 6 1 3 1015.6 1015.3 0.0
02/09:30pm 17.3 17.3 11.3 68 3.3 ESE 2 6 1 3 1015.6 1015.3 0.0
02/09:00pm 18.1 18.1 11.2 64 3.8 SSW 2 4 1 2 1015.4 1015.1 0.0
02/08:30pm 18.5 18.7 10.6 60 4.3 CALM 0 0 0 0 1014.8 1014.5 0.0
02/08:00pm 19.7 19.0 10.1 54 5.2 SSW 4 6 2 3 1014.5 1014.2 0.0
02/07:30pm 20.1 19.7 11.1 56 5.0 SSE 4 6 2 3 1014.2 1013.9 0.0
02/07:00pm 21.0 20.9 12.2 57 5.0 S 4 6 2 3 1014.2 1013.9 0.0
02/06:30pm 22.2 21.6 10.4 47 6.5 SE 4 6 2 3 1013.7 1013.4 0.0
02/06:00pm 22.9 22.2 10.0 44 7.1 S 4 4 2 2 1014.0 1013.7 0.0
02/05:30pm 23.0 21.9 10.8 46 6.8 W 7 13 4 7 1014.2 1013.9 0.0
02/05:00pm 23.4 22.3 10.5 44 7.2 W 7 15 4 8 1014.2 1013.9 0.0
02/04:30pm 23.4 22.5 10.5 44 7.2 S 6 9 3 5 1014.4 1014.1 0.0
02/04:00pm 22.9 22.7 11.9 50 6.2 NW 4 9 2 5 1014.4 1014.1 0.0
02/03:30pm 22.4 20.8 8.9 42 7.2 W 7 13 4 7 1014.7 1014.4 0.0
02/03:00pm 21.8 21.2 10.3 48 6.3 W 4 7 2 4 1015.4 1015.1 0.0
02/02:30pm 21.6 20.9 10.1 48 6.3 SW 4 7 2 4 1015.6 1015.3 0.0
02/02:00pm 21.1 20.8 11.4 54 5.4 WNW 4 9 2 5 1015.8 1015.5 0.0
02/01:30pm 21.0 21.0 11.3 54 5.4 SSW 2 6 1 3 1016.0 1015.7 0.0
02/01:00pm 20.3 20.1 11.8 58 4.7 N 4 7 2 4 1016.5 1016.2 0.0
02/12:30pm 18.8 18.0 10.9 60 4.3 ESE 6 11 3 6 1016.9 1016.6 0.0
02/12:00pm 17.7 16.8 10.8 64 3.7 ESE 6 11 3 6 1017.3 1017.0 0.0
02/11:30am 17.3 16.5 11.8 70 3.0 ENE 7 11 4 6 1017.9 1017.6 0.0
02/11:00am 15.4 13.5 10.6 73 2.5 ESE 11 17 6 9 1018.2 1017.9 0.0
02/10:30am 15.0 13.6 10.8 76 2.2 ESE 9 15 5 8 1018.6 1018.3 0.0
02/10:00am 13.9 12.6 10.1 78 2.0 ESE 7 11 4 6 1018.5 1018.2 0.0
02/09:30am 12.8 11.6 10.3 85 1.3 E 7 9 4 5 1018.6 1018.3 0.0
02/09:00am 11.1 10.9 10.5 96 0.3 E 2 7 1 4 1018.7 1018.4 0.2
02/08:30am 9.1 8.8 8.8 98 0.1 CALM 0 0 0 0 1018.8 1018.5 0.2
02/08:00am 7.1 6.4 7.0 99 0.0 CALM 0 0 0 0 1018.6 1018.3 0.2
02/07:30am 6.3 5.0 6.2 99 0.0 NNE 2 4 1 2 1018.4 1018.1 0.2
02/07:00am 5.7 4.7 5.4 98 0.1 CALM 0 2 0 1 1018.5 1018.2 0.2
02/06:30am 6.2 4.9 5.9 98 0.1 SSW 2 7 1 4 1018.5 1018.2 0.2
02/06:00am 6.0 5.0 5.6 97 0.2 CALM 0 0 0 0 1018.2 1017.9 0.2
02/05:30am 6.4 5.5 6.0 97 0.2 CALM 0 0 0 0 1018.3 1018.0 0.2
02/05:00am 7.7 7.1 7.3 97 0.2 CALM 0 2 0 1 1018.4 1018.1 0.2
02/04:30am 7.5 6.1 7.1 97 0.2 E 4 6 2 3 1018.2 1017.9 0.2
02/04:00am 7.0 5.4 6.4 96 0.3 E 4 6 2 3 1018.4 1018.1 0.2
02/03:30am 7.5 6.8 6.8 95 0.3 CALM 0 0 0 0 1018.7 1018.4 0.2
02/03:00am 9.0 8.6 8.2 95 0.4 CALM 0 0 0 0 1018.7 1018.4 0.2
02/02:30am 9.2 8.4 8.3 94 0.4 WNW 2 4 1 2 1018.6 1018.3 0.2
02/02:00am 9.7 8.3 8.8 94 0.4 WNW 6 6 3 3 1018.6 1018.3 0.2
02/01:30am 9.8 9.5 8.6 92 0.6 CALM 0 0 0 0 1018.3 1018.0 0.2
02/01:00am 10.3 9.4 9.2 93 0.5 NE 4 6 2 3 1018.0 1017.7 0.2
02/12:30am 11.0 10.6 9.8 92 0.6 NW 2 6 1 3 1018.1 1017.8 0.2
02/12:00am 10.3 10.1 8.9 91 0.7 CALM 0 0 0 0 1018.2 1017.9 0.2
 
Date/Time
EDT
Temp
°C
App
Temp
°C
Dew
Point
Rel
Hum
%
Delta-T
°C
Wind Press
QNH
hPa
Press
MSL
hPa
Rain
since 9 am
mm
Dir
 
Spd
km/h
Gust
km/h
Spd
kts
Gust
kts
01/11:30pm 11.0 10.1 9.3 89 0.9 WNW 4 6 2 3 1018.2 1017.9 0.2
01/11:00pm 11.7 10.9 9.8 88 1.0 WNW 4 4 2 2 1018.2 1017.9 0.2
01/10:30pm 12.1 12.1 9.8 86 1.2 CALM 0 0 0 0 1018.3 1018.0 0.2
01/10:00pm 12.8 12.8 9.8 82 1.5 CALM 0 2 0 1 1018.3 1018.0 0.2
01/09:30pm 13.4 13.1 10.0 80 1.8 SSW 2 4 1 2 1018.2 1017.9 0.2
01/09:00pm 14.0 13.0 10.2 78 2.0 SSE 6 9 3 5 1017.6 1017.3 0.2
01/08:30pm 14.3 13.2 10.1 76 2.2 SSW 6 9 3 5 1017.6 1017.3 0.2
01/08:00pm 14.9 13.6 10.1 73 2.5 S 7 11 4 6 1017.3 1017.0 0.2
01/07:30pm 16.4 15.5 10.7 69 3.1 SSW 6 9 3 5 1016.9 1016.6 0.2
01/07:00pm 17.1 16.0 10.7 66 3.4 SSW 7 15 4 8 1017.0 1016.7 0.2
01/06:30pm 18.4 16.7 10.0 58 4.5 SSW 9 17 5 9 1016.6 1016.3 0.2
01/06:00pm 18.0 16.7 10.1 60 4.2 SW 7 17 4 9 1016.2 1015.9 0.2
01/05:30pm 19.0 17.3 9.8 55 4.9 SW 9 17 5 9 1015.7 1015.4 0.2
01/05:00pm 19.2 17.5 9.7 54 5.1 SW 9 17 5 9 1015.4 1015.1 0.2
01/04:30pm 19.3 16.4 8.0 48 5.9 SW 13 22 7 12 1015.3 1015.0 0.2
01/04:00pm 20.4 17.5 9.6 50 5.8 WSW 15 32 8 17 1015.1 1014.8 0.2
01/03:30pm 20.8 18.9 10.6 52 5.6 SW 11 24 6 13 1014.9 1014.6 0.2
01/03:00pm 19.4 17.2 9.3 52 5.4 SW 11 22 6 12 1014.7 1014.4 0.2
01/02:30pm 20.5 18.0 10.9 54 5.3 WSW 15 24 8 13 1014.3 1014.0 0.2
01/02:00pm 19.1 16.8 10.4 57 4.7 SW 13 22 7 12 1014.3 1014.0 0.2
01/01:30pm 19.5 17.7 10.8 57 4.8 SW 11 22 6 12 1014.0 1013.7 0.2
01/01:00pm 18.9 16.6 10.5 58 4.5 SW 13 26 7 14 1014.1 1013.8 0.2
01/12:30pm 20.0 17.8 12.0 60 4.5 WSW 15 26 8 14 1013.8 1013.5 0.0
01/12:00pm 19.0 17.5 11.8 63 4.0 WSW 11 19 6 10 1013.6 1013.2 0.0
01/11:30am 18.9 16.4 11.0 60 4.3 WSW 15 28 8 15 1013.2 1012.9 0.0
01/11:00am 17.6 15.5 11.2 66 3.5 WSW 13 26 7 14 1012.9 1012.6 0.0
01/10:30am 17.0 14.6 11.5 70 3.0 W 15 26 8 14 1012.4 1012.0 0.0
01/10:00am 17.3 15.2 11.3 68 3.3 WSW 13 20 7 11 1011.9 1011.5 0.0
01/09:30am 16.6 15.0 11.5 72 2.8 WSW 11 20 6 11 1011.6 1011.2 0.0
01/09:00am 16.6 15.4 12.9 79 2.1 W 11 20 6 11 1011.2 1010.8 13.8
01/08:30am 15.8 14.2 12.7 82 1.7 W 13 17 7 9 1010.6 1010.2 13.8
01/08:00am 15.0 14.3 13.2 89 1.0 W 9 13 5 7 1010.2 1009.8 13.8
01/07:30am 14.7 13.6 13.2 91 0.8 W 11 13 6 7 1009.7 1009.3 13.8
01/07:00am 14.9 14.0 13.6 92 0.7 W 11 15 6 8 1009.1 1008.7 13.8
01/06:30am 14.9 14.4 13.8 93 0.6 W 9 13 5 7 1008.5 1008.1 13.8
01/06:00am 14.9 14.4 13.9 94 0.6 WNW 9 13 5 7 1008.0 1007.6 13.8
01/05:30am 15.1 15.1 14.1 94 0.6 W 7 15 4 8 1007.3 1006.8 13.8
01/05:00am 15.2 15.3 14.4 95 0.5 WSW 7 13 4 7 1006.8 1006.3 13.8
01/04:30am 15.3 14.7 14.5 95 0.5 W 11 17 6 9 1006.3 1005.8 13.8
01/04:00am 15.5 13.7 14.5 94 0.6 SW 17 32 9 17 1005.9 1005.4 13.4
01/03:30am 16.9 17.0 16.4 97 0.3 WSW 11 20 6 11 1004.6 1004.2 13.2
01/03:00am 17.2 17.0 16.7 97 0.3 WSW 13 26 7 14 1004.6 1004.2 13.0
01/02:30am 17.9 18.4 17.4 97 0.3 W 11 15 6 8 1004.6 1004.2 12.8
01/02:00am 17.9 20.5 17.4 97 0.3 CALM 0 0 0 0 1004.7 1004.3 11.2
01/01:30am 17.7 19.8 17.2 97 0.3 WSW 2 4 1 2 1004.6 1004.2 11.2
01/01:00am 17.6 19.2 17.0 96 0.4 NNW 4 6 2 3 1005.0 1004.6 11.2
01/12:30am 17.7 18.8 17.2 97 0.3 NNE 7 11 4 6 1005.2 1004.8 10.2
01/12:00am 17.7 19.0 17.2 97 0.3 N 6 11 3 6 1005.8 1005.3 9.2
 
Date/Time
EDT
Temp
°C
App
Temp
°C
Dew
Point
Rel
Hum
%
Delta-T
°C
Wind Press
QNH
hPa
Press
MSL
hPa
Rain
since 9 am
mm
Dir
 
Spd
km/h
Gust
km/h
Spd
kts
Gust
kts
28/11:30pm 17.8 18.9 17.2 96 0.4 NW 7 13 4 7 1007.0 1006.5 6.8
28/11:00pm 17.8 18.8 16.8 94 0.6 WNW 7 13 4 7 1006.7 1006.2 5.0
28/10:30pm 18.5 17.6 16.8 90 1.0 WSW 17 28 9 15 1006.1 1005.6 1.2
28/10:00pm 19.7 17.9 16.9 84 1.7 WSW 22 39 12 21 1005.3 1004.9 0.6
28/09:40pm 21.9 21.4 16.0 69 3.6 W 13 48 7 26 1004.5 1004.1 0.4
28/09:30pm 23.0 22.5 15.8 64 4.4 WSW 13 28 7 15 1003.5 1003.1 0.4
28/09:22pm 22.2 22.8 16.7 71 3.4 SSW 9 24 5 13 1002.2 1001.8 0.0
28/09:00pm 21.9 22.4 16.6 72 3.3 E 9 13 5 7 1000.2 999.7 0.0
28/08:30pm 22.2 23.1 16.7 71 3.4 E 7 9 4 5 1000.6 1000.1 0.0
28/08:00pm 23.1 23.5 16.4 66 4.1 E 9 13 5 7 1000.9 1000.4 0.0
28/07:30pm 23.9 24.6 16.2 62 4.7 E 7 11 4 6 1001.2 1000.8 0.0
28/07:00pm 26.0 26.0 15.1 51 6.6 ENE 9 13 5 7 1001.7 1001.3 0.0
28/06:30pm 26.9 26.6 14.3 46 7.6 ENE 9 13 5 7 1002.0 1001.6 0.0
28/06:00pm 27.4 27.7 15.1 47 7.5 NE 7 13 4 7 1002.6 1002.2 0.0
28/05:30pm 26.8 27.5 15.5 50 6.9 E 6 9 3 5 1002.8 1002.4 0.0
28/05:00pm 24.7 26.6 16.7 61 5.0 SW 2 4 1 2 1003.3 1002.9 0.0
28/04:30pm 25.5 26.2 14.6 51 6.5 NW 4 7 2 4 1003.1 1002.7 0.0
28/04:00pm 25.8 26.0 14.3 49 6.9 N 6 13 3 7 1003.3 1002.9 0.0
28/03:30pm 26.1 25.6 13.9 47 7.3 N 9 15 5 8 1003.5 1003.1 0.0
28/03:00pm 25.9 24.4 13.1 45 7.5 NNW 13 20 7 11 1004.1 1003.7 0.0
28/02:30pm 25.7 24.1 12.9 45 7.5 N 13 24 7 13 1004.6 1004.2 0.0

Other Formats:

Comma delimited format used in spreadsheet applications
http://www.bom.gov.au/fwo/IDV60801/IDV60801.99806.axf

JavaScript Object Notation format (JSON) in row-major order
http://www.bom.gov.au/fwo/IDV60801/IDV60801.99806.json